sensor_id;sensor_type;location;lat;lon;timestamp;P1;durP1;ratioP1;P2;durP2;ratioP2
15931;SDS011;8065;49.520;11.284;2023-07-31T00:01:19;4.27;;;2.27;;
15931;SDS011;8065;49.520;11.284;2023-07-31T00:03:48;5.93;;;2.37;;
15931;SDS011;8065;49.520;11.284;2023-07-31T00:06:17;2.50;;;2.30;;
15931;SDS011;8065;49.520;11.284;2023-07-31T00:08:45;3.23;;;2.10;;
15931;SDS011;8065;49.520;11.284;2023-07-31T00:11:13;5.50;;;2.40;;
15931;SDS011;8065;49.520;11.284;2023-07-31T00:13:44;4.73;;;2.40;;
15931;SDS011;8065;49.520;11.284;2023-07-31T00:16:13;6.53;;;2.20;;
15931;SDS011;8065;49.520;11.284;2023-07-31T00:18:41;7.57;;;2.37;;
15931;SDS011;8065;49.520;11.284;2023-07-31T00:21:09;3.50;;;2.10;;
15931;SDS011;8065;49.520;11.284;2023-07-31T00:23:38;3.93;;;2.30;;
15931;SDS011;8065;49.520;11.284;2023-07-31T00:26:06;4.43;;;2.30;;
15931;SDS011;8065;49.520;11.284;2023-07-31T00:28:34;4.83;;;2.30;;
15931;SDS011;8065;49.520;11.284;2023-07-31T00:31:05;4.70;;;2.47;;
15931;SDS011;8065;49.520;11.284;2023-07-31T00:33:34;3.07;;;2.30;;
15931;SDS011;8065;49.520;11.284;2023-07-31T00:36:03;5.33;;;2.83;;
15931;SDS011;8065;49.520;11.284;2023-07-31T00:38:31;4.97;;;2.20;;
15931;SDS011;8065;49.520;11.284;2023-07-31T00:40:59;3.87;;;2.57;;
15931;SDS011;8065;49.520;11.284;2023-07-31T00:43:28;3.97;;;2.40;;
15931;SDS011;8065;49.520;11.284;2023-07-31T00:45:56;3.30;;;2.20;;
15931;SDS011;8065;49.520;11.284;2023-07-31T00:48:27;3.33;;;2.27;;
15931;SDS011;8065;49.520;11.284;2023-07-31T00:50:56;3.93;;;2.30;;
15931;SDS011;8065;49.520;11.284;2023-07-31T00:53:26;4.67;;;1.93;;
15931;SDS011;8065;49.520;11.284;2023-07-31T00:55:55;3.37;;;2.13;;
15931;SDS011;8065;49.520;11.284;2023-07-31T00:58:24;5.70;;;2.17;;
15931;SDS011;8065;49.520;11.284;2023-07-31T01:00:52;3.30;;;2.07;;
15931;SDS011;8065;49.520;11.284;2023-07-31T01:03:20;3.43;;;1.80;;
15931;SDS011;8065;49.520;11.284;2023-07-31T01:05:53;3.97;;;2.13;;
15931;SDS011;8065;49.520;11.284;2023-07-31T01:08:32;2.23;;;1.70;;
15931;SDS011;8065;49.520;11.284;2023-07-31T01:11:07;4.00;;;2.10;;
15931;SDS011;8065;49.520;11.284;2023-07-31T01:13:39;5.07;;;2.23;;
15931;SDS011;8065;49.520;11.284;2023-07-31T01:16:08;4.70;;;2.10;;
15931;SDS011;8065;49.520;11.284;2023-07-31T01:18:37;3.67;;;1.97;;
15931;SDS011;8065;49.520;11.284;2023-07-31T01:21:11;1.80;;;1.60;;
15931;SDS011;8065;49.520;11.284;2023-07-31T01:26:55;3.80;;;2.07;;
15931;SDS011;8065;49.520;11.284;2023-07-31T01:29:28;4.30;;;2.00;;
15931;SDS011;8065;49.520;11.284;2023-07-31T01:32:03;3.07;;;2.40;;
15931;SDS011;8065;49.520;11.284;2023-07-31T01:34:33;6.90;;;2.30;;
15931;SDS011;8065;49.520;11.284;2023-07-31T01:37:03;3.37;;;2.00;;
15931;SDS011;8065;49.520;11.284;2023-07-31T01:39:32;4.63;;;2.00;;
15931;SDS011;8065;49.520;11.284;2023-07-31T01:42:03;4.10;;;2.10;;
15931;SDS011;8065;49.520;11.284;2023-07-31T01:44:32;4.03;;;2.20;;
15931;SDS011;8065;49.520;11.284;2023-07-31T01:47:01;3.10;;;2.00;;
15931;SDS011;8065;49.520;11.284;2023-07-31T01:49:29;3.97;;;2.03;;
15931;SDS011;8065;49.520;11.284;2023-07-31T01:51:57;4.53;;;2.10;;
15931;SDS011;8065;49.520;11.284;2023-07-31T01:54:25;3.93;;;1.80;;
15931;SDS011;8065;49.520;11.284;2023-07-31T01:56:54;5.67;;;2.17;;
15931;SDS011;8065;49.520;11.284;2023-07-31T01:59:25;2.73;;;1.83;;
15931;SDS011;8065;49.520;11.284;2023-07-31T02:01:54;5.53;;;2.10;;
15931;SDS011;8065;49.520;11.284;2023-07-31T02:04:22;4.93;;;1.80;;
15931;SDS011;8065;49.520;11.284;2023-07-31T02:06:52;2.93;;;1.80;;
15931;SDS011;8065;49.520;11.284;2023-07-31T02:09:20;3.90;;;1.97;;
15931;SDS011;8065;49.520;11.284;2023-07-31T02:11:49;6.00;;;2.13;;
15931;SDS011;8065;49.520;11.284;2023-07-31T02:14:17;4.77;;;2.10;;
15931;SDS011;8065;49.520;11.284;2023-07-31T02:16:48;2.93;;;1.83;;
15931;SDS011;8065;49.520;11.284;2023-07-31T02:19:16;5.43;;;2.23;;
15931;SDS011;8065;49.520;11.284;2023-07-31T02:21:44;2.47;;;1.87;;
15931;SDS011;8065;49.520;11.284;2023-07-31T02:24:13;2.00;;;1.70;;
15931;SDS011;8065;49.520;11.284;2023-07-31T02:26:41;3.23;;;2.00;;
15931;SDS011;8065;49.520;11.284;2023-07-31T02:29:09;5.53;;;2.10;;
15931;SDS011;8065;49.520;11.284;2023-07-31T02:31:38;3.13;;;2.00;;
15931;SDS011;8065;49.520;11.284;2023-07-31T02:34:09;3.90;;;2.20;;
15931;SDS011;8065;49.520;11.284;2023-07-31T02:36:37;4.10;;;2.10;;
15931;SDS011;8065;49.520;11.284;2023-07-31T02:39:05;3.27;;;1.77;;
15931;SDS011;8065;49.520;11.284;2023-07-31T02:41:33;2.70;;;2.03;;
15931;SDS011;8065;49.520;11.284;2023-07-31T02:44:02;5.60;;;2.13;;
15931;SDS011;8065;49.520;11.284;2023-07-31T02:46:30;3.37;;;2.00;;
15931;SDS011;8065;49.520;11.284;2023-07-31T02:48:58;4.97;;;2.30;;
15931;SDS011;8065;49.520;11.284;2023-07-31T02:51:29;5.70;;;2.10;;
15931;SDS011;8065;49.520;11.284;2023-07-31T02:53:57;2.37;;;1.80;;
15931;SDS011;8065;49.520;11.284;2023-07-31T02:56:26;3.63;;;1.93;;
15931;SDS011;8065;49.520;11.284;2023-07-31T02:58:54;4.83;;;2.30;;
15931;SDS011;8065;49.520;11.284;2023-07-31T03:01:22;2.33;;;2.00;;
15931;SDS011;8065;49.520;11.284;2023-07-31T03:03:50;5.60;;;2.30;;
15931;SDS011;8065;49.520;11.284;2023-07-31T03:06:19;4.30;;;1.93;;
15931;SDS011;8065;49.520;11.284;2023-07-31T03:08:50;3.67;;;1.90;;
15931;SDS011;8065;49.520;11.284;2023-07-31T03:11:18;4.47;;;2.03;;
15931;SDS011;8065;49.520;11.284;2023-07-31T03:13:46;3.07;;;1.90;;
15931;SDS011;8065;49.520;11.284;2023-07-31T03:16:15;3.00;;;1.80;;
15931;SDS011;8065;49.520;11.284;2023-07-31T03:18:43;5.43;;;2.20;;
15931;SDS011;8065;49.520;11.284;2023-07-31T03:21:12;3.50;;;2.00;;
15931;SDS011;8065;49.520;11.284;2023-07-31T03:23:40;5.40;;;1.83;;
15931;SDS011;8065;49.520;11.284;2023-07-31T03:26:11;3.67;;;2.20;;
15931;SDS011;8065;49.520;11.284;2023-07-31T03:28:39;6.53;;;2.13;;
15931;SDS011;8065;49.520;11.284;2023-07-31T03:31:07;3.30;;;1.97;;
15931;SDS011;8065;49.520;11.284;2023-07-31T03:33:36;3.60;;;2.23;;
15931;SDS011;8065;49.520;11.284;2023-07-31T03:36:04;5.07;;;2.07;;
15931;SDS011;8065;49.520;11.284;2023-07-31T03:38:33;2.90;;;1.90;;
15931;SDS011;8065;49.520;11.284;2023-07-31T03:41:01;3.30;;;1.80;;
15931;SDS011;8065;49.520;11.284;2023-07-31T03:43:33;4.07;;;2.00;;
15931;SDS011;8065;49.520;11.284;2023-07-31T03:46:02;2.37;;;1.87;;
15931;SDS011;8065;49.520;11.284;2023-07-31T03:48:30;4.27;;;1.87;;
15931;SDS011;8065;49.520;11.284;2023-07-31T03:50:58;3.63;;;1.80;;
15931;SDS011;8065;49.520;11.284;2023-07-31T03:53:27;3.33;;;1.70;;
15931;SDS011;8065;49.520;11.284;2023-07-31T03:55:55;4.40;;;2.03;;
15931;SDS011;8065;49.520;11.284;2023-07-31T03:58:23;3.93;;;1.90;;
15931;SDS011;8065;49.520;11.284;2023-07-31T04:00:54;4.33;;;1.70;;
15931;SDS011;8065;49.520;11.284;2023-07-31T04:03:22;4.20;;;2.07;;
15931;SDS011;8065;49.520;11.284;2023-07-31T04:05:51;3.33;;;2.00;;
15931;SDS011;8065;49.520;11.284;2023-07-31T04:08:19;3.10;;;1.87;;
15931;SDS011;8065;49.520;11.284;2023-07-31T04:10:47;8.13;;;2.20;;
15931;SDS011;8065;49.520;11.284;2023-07-31T04:13:16;4.10;;;2.00;;
15931;SDS011;8065;49.520;11.284;2023-07-31T04:15:47;3.73;;;1.60;;
15931;SDS011;8065;49.520;11.284;2023-07-31T04:18:19;3.50;;;1.80;;
15931;SDS011;8065;49.520;11.284;2023-07-31T04:20:48;2.80;;;1.90;;
15931;SDS011;8065;49.520;11.284;2023-07-31T04:23:16;4.30;;;2.30;;
15931;SDS011;8065;49.520;11.284;2023-07-31T04:25:44;4.43;;;2.50;;
15931;SDS011;8065;49.520;11.284;2023-07-31T04:28:12;3.93;;;2.10;;
15931;SDS011;8065;49.520;11.284;2023-07-31T04:30:41;4.57;;;1.90;;
15931;SDS011;8065;49.520;11.284;2023-07-31T04:33:09;3.40;;;1.90;;
15931;SDS011;8065;49.520;11.284;2023-07-31T04:35:40;5.60;;;2.00;;
15931;SDS011;8065;49.520;11.284;2023-07-31T04:38:08;4.40;;;1.90;;
15931;SDS011;8065;49.520;11.284;2023-07-31T04:40:36;5.20;;;1.70;;
15931;SDS011;8065;49.520;11.284;2023-07-31T04:43:05;6.53;;;1.87;;
15931;SDS011;8065;49.520;11.284;2023-07-31T04:45:33;4.63;;;1.97;;
15931;SDS011;8065;49.520;11.284;2023-07-31T04:48:01;3.50;;;2.10;;
15931;SDS011;8065;49.520;11.284;2023-07-31T04:50:30;3.27;;;2.00;;
15931;SDS011;8065;49.520;11.284;2023-07-31T04:53:01;4.73;;;1.70;;
15931;SDS011;8065;49.520;11.284;2023-07-31T04:55:29;4.13;;;1.97;;
15931;SDS011;8065;49.520;11.284;2023-07-31T04:57:58;2.47;;;1.87;;
15931;SDS011;8065;49.520;11.284;2023-07-31T05:00:27;2.93;;;1.97;;
15931;SDS011;8065;49.520;11.284;2023-07-31T05:02:55;2.93;;;2.00;;
15931;SDS011;8065;49.520;11.284;2023-07-31T05:05:23;2.17;;;1.90;;
15931;SDS011;8065;49.520;11.284;2023-07-31T05:07:52;4.40;;;1.80;;
15931;SDS011;8065;49.520;11.284;2023-07-31T05:10:23;3.10;;;2.00;;
15931;SDS011;8065;49.520;11.284;2023-07-31T05:12:51;3.27;;;1.70;;
15931;SDS011;8065;49.520;11.284;2023-07-31T05:15:19;2.83;;;2.10;;
15931;SDS011;8065;49.520;11.284;2023-07-31T05:17:48;3.73;;;1.50;;
15931;SDS011;8065;49.520;11.284;2023-07-31T05:20:16;3.23;;;1.90;;
15931;SDS011;8065;49.520;11.284;2023-07-31T05:22:44;6.00;;;1.73;;
15931;SDS011;8065;49.520;11.284;2023-07-31T05:25:13;4.20;;;2.03;;
15931;SDS011;8065;49.520;11.284;2023-07-31T05:27:44;5.17;;;1.87;;
15931;SDS011;8065;49.520;11.284;2023-07-31T05:30:12;3.53;;;2.13;;
15931;SDS011;8065;49.520;11.284;2023-07-31T05:32:40;5.70;;;1.80;;
15931;SDS011;8065;49.520;11.284;2023-07-31T05:35:08;4.97;;;1.90;;
15931;SDS011;8065;49.520;11.284;2023-07-31T05:37:37;4.23;;;1.83;;
15931;SDS011;8065;49.520;11.284;2023-07-31T05:40:06;3.67;;;2.03;;
15931;SDS011;8065;49.520;11.284;2023-07-31T05:42:35;2.93;;;1.60;;
15931;SDS011;8065;49.520;11.284;2023-07-31T05:45:06;3.37;;;1.70;;
15931;SDS011;8065;49.520;11.284;2023-07-31T05:47:35;4.30;;;2.10;;
15931;SDS011;8065;49.520;11.284;2023-07-31T05:50:04;1.90;;;1.80;;
15931;SDS011;8065;49.520;11.284;2023-07-31T05:52:33;3.10;;;2.03;;
15931;SDS011;8065;49.520;11.284;2023-07-31T05:55:01;3.77;;;1.83;;
15931;SDS011;8065;49.520;11.284;2023-07-31T05:57:30;3.80;;;1.87;;
15931;SDS011;8065;49.520;11.284;2023-07-31T05:59:58;4.87;;;1.87;;
15931;SDS011;8065;49.520;11.284;2023-07-31T06:02:29;4.03;;;1.90;;
15931;SDS011;8065;49.520;11.284;2023-07-31T06:05:01;5.73;;;2.07;;
15931;SDS011;8065;49.520;11.284;2023-07-31T06:07:30;4.27;;;2.10;;
15931;SDS011;8065;49.520;11.284;2023-07-31T06:09:59;4.53;;;2.33;;
15931;SDS011;8065;49.520;11.284;2023-07-31T06:12:30;2.60;;;1.80;;
15931;SDS011;8065;49.520;11.284;2023-07-31T06:14:58;5.17;;;1.67;;
15931;SDS011;8065;49.520;11.284;2023-07-31T06:17:29;4.97;;;1.70;;
15931;SDS011;8065;49.520;11.284;2023-07-31T06:19:58;4.03;;;1.90;;
15931;SDS011;8065;49.520;11.284;2023-07-31T06:22:26;7.50;;;1.83;;
15931;SDS011;8065;49.520;11.284;2023-07-31T06:24:54;2.57;;;1.70;;
15931;SDS011;8065;49.520;11.284;2023-07-31T06:27:23;4.53;;;2.03;;
15931;SDS011;8065;49.520;11.284;2023-07-31T06:29:51;4.87;;;1.70;;
15931;SDS011;8065;49.520;11.284;2023-07-31T06:32:19;6.90;;;2.20;;
15931;SDS011;8065;49.520;11.284;2023-07-31T06:34:50;3.10;;;2.17;;
15931;SDS011;8065;49.520;11.284;2023-07-31T06:37:19;5.17;;;1.80;;
15931;SDS011;8065;49.520;11.284;2023-07-31T06:39:47;3.10;;;1.90;;
15931;SDS011;8065;49.520;11.284;2023-07-31T06:42:15;5.43;;;2.00;;
15931;SDS011;8065;49.520;11.284;2023-07-31T06:44:43;3.73;;;2.07;;
15931;SDS011;8065;49.520;11.284;2023-07-31T06:47:12;3.73;;;2.10;;
15931;SDS011;8065;49.520;11.284;2023-07-31T06:49:40;3.83;;;2.17;;
15931;SDS011;8065;49.520;11.284;2023-07-31T06:52:11;2.80;;;1.90;;
15931;SDS011;8065;49.520;11.284;2023-07-31T06:54:39;3.57;;;1.63;;
15931;SDS011;8065;49.520;11.284;2023-07-31T06:57:07;3.77;;;2.03;;
15931;SDS011;8065;49.520;11.284;2023-07-31T06:59:36;4.80;;;2.20;;
15931;SDS011;8065;49.520;11.284;2023-07-31T07:02:04;5.20;;;2.30;;
15931;SDS011;8065;49.520;11.284;2023-07-31T07:04:33;2.90;;;1.87;;
15931;SDS011;8065;49.520;11.284;2023-07-31T07:07:02;2.83;;;1.83;;
15931;SDS011;8065;49.520;11.284;2023-07-31T07:09:33;3.43;;;2.43;;
15931;SDS011;8065;49.520;11.284;2023-07-31T07:12:02;5.03;;;1.97;;
15931;SDS011;8065;49.520;11.284;2023-07-31T07:14:30;4.23;;;2.17;;
15931;SDS011;8065;49.520;11.284;2023-07-31T07:16:59;5.03;;;1.97;;
15931;SDS011;8065;49.520;11.284;2023-07-31T07:19:27;3.17;;;2.00;;
15931;SDS011;8065;49.520;11.284;2023-07-31T07:21:55;3.90;;;2.00;;
15931;SDS011;8065;49.520;11.284;2023-07-31T07:24:24;4.30;;;2.10;;
15931;SDS011;8065;49.520;11.284;2023-07-31T07:26:55;3.90;;;2.07;;
15931;SDS011;8065;49.520;11.284;2023-07-31T07:29:24;6.00;;;2.23;;
15931;SDS011;8065;49.520;11.284;2023-07-31T07:31:52;3.70;;;2.20;;
15931;SDS011;8065;49.520;11.284;2023-07-31T07:34:22;5.23;;;2.50;;
15931;SDS011;8065;49.520;11.284;2023-07-31T07:36:50;4.73;;;2.40;;
15931;SDS011;8065;49.520;11.284;2023-07-31T07:39:18;4.97;;;2.10;;
15931;SDS011;8065;49.520;11.284;2023-07-31T07:41:47;3.50;;;2.20;;
15931;SDS011;8065;49.520;11.284;2023-07-31T07:44:18;5.37;;;2.23;;
15931;SDS011;8065;49.520;11.284;2023-07-31T07:46:46;6.07;;;2.00;;
15931;SDS011;8065;49.520;11.284;2023-07-31T07:49:14;5.23;;;2.23;;
15931;SDS011;8065;49.520;11.284;2023-07-31T07:51:42;5.17;;;2.20;;
15931;SDS011;8065;49.520;11.284;2023-07-31T07:54:11;2.20;;;1.93;;
15931;SDS011;8065;49.520;11.284;2023-07-31T07:56:39;4.80;;;1.93;;
15931;SDS011;8065;49.520;11.284;2023-07-31T07:59:07;4.17;;;2.20;;
15931;SDS011;8065;49.520;11.284;2023-07-31T08:01:38;4.17;;;2.40;;
15931;SDS011;8065;49.520;11.284;2023-07-31T08:04:06;5.13;;;2.23;;
15931;SDS011;8065;49.520;11.284;2023-07-31T08:06:34;5.30;;;2.07;;
15931;SDS011;8065;49.520;11.284;2023-07-31T08:09:03;6.10;;;2.40;;
15931;SDS011;8065;49.520;11.284;2023-07-31T08:11:31;3.33;;;2.10;;
15931;SDS011;8065;49.520;11.284;2023-07-31T08:14:00;4.50;;;2.40;;
15931;SDS011;8065;49.520;11.284;2023-07-31T08:16:28;7.83;;;2.60;;
15931;SDS011;8065;49.520;11.284;2023-07-31T08:18:59;4.93;;;2.23;;
15931;SDS011;8065;49.520;11.284;2023-07-31T08:21:27;8.30;;;3.90;;
15931;SDS011;8065;49.520;11.284;2023-07-31T08:23:55;5.87;;;2.90;;
15931;SDS011;8065;49.520;11.284;2023-07-31T08:26:24;3.77;;;2.20;;
15931;SDS011;8065;49.520;11.284;2023-07-31T08:28:52;5.97;;;2.67;;
15931;SDS011;8065;49.520;11.284;2023-07-31T08:31:20;5.77;;;2.40;;
15931;SDS011;8065;49.520;11.284;2023-07-31T08:33:48;6.43;;;2.30;;
15931;SDS011;8065;49.520;11.284;2023-07-31T08:36:19;3.93;;;2.50;;
15931;SDS011;8065;49.520;11.284;2023-07-31T08:38:48;5.03;;;2.20;;
15931;SDS011;8065;49.520;11.284;2023-07-31T08:41:16;5.40;;;2.23;;
15931;SDS011;8065;49.520;11.284;2023-07-31T08:43:45;5.40;;;2.80;;
15931;SDS011;8065;49.520;11.284;2023-07-31T08:46:14;7.23;;;2.60;;
15931;SDS011;8065;49.520;11.284;2023-07-31T08:48:42;6.20;;;3.10;;
15931;SDS011;8065;49.520;11.284;2023-07-31T08:51:13;9.17;;;2.60;;
15931;SDS011;8065;49.520;11.284;2023-07-31T08:53:44;6.30;;;2.90;;
15931;SDS011;8065;49.520;11.284;2023-07-31T08:56:12;5.87;;;2.50;;
15931;SDS011;8065;49.520;11.284;2023-07-31T08:58:42;3.50;;;2.03;;
15931;SDS011;8065;49.520;11.284;2023-07-31T09:01:13;5.37;;;2.40;;
15931;SDS011;8065;49.520;11.284;2023-07-31T09:03:42;3.97;;;2.37;;
15931;SDS011;8065;49.520;11.284;2023-07-31T09:06:12;8.40;;;2.43;;
15931;SDS011;8065;49.520;11.284;2023-07-31T09:08:46;4.13;;;2.20;;
15931;SDS011;8065;49.520;11.284;2023-07-31T09:11:14;5.57;;;2.43;;
15931;SDS011;8065;49.520;11.284;2023-07-31T09:13:42;5.37;;;2.30;;
15931;SDS011;8065;49.520;11.284;2023-07-31T09:16:11;7.63;;;2.60;;
15931;SDS011;8065;49.520;11.284;2023-07-31T09:21:31;4.60;;;2.07;;
15931;SDS011;8065;49.520;11.284;2023-07-31T09:24:02;4.50;;;2.30;;
15931;SDS011;8065;49.520;11.284;2023-07-31T09:26:31;4.67;;;2.10;;
15931;SDS011;8065;49.520;11.284;2023-07-31T09:29:01;5.37;;;1.93;;
15931;SDS011;8065;49.520;11.284;2023-07-31T09:31:33;6.47;;;2.27;;
15931;SDS011;8065;49.520;11.284;2023-07-31T09:34:07;3.60;;;2.33;;
15931;SDS011;8065;49.520;11.284;2023-07-31T09:36:39;3.63;;;2.07;;
15931;SDS011;8065;49.520;11.284;2023-07-31T09:39:12;5.17;;;2.10;;
15931;SDS011;8065;49.520;11.284;2023-07-31T09:41:42;4.97;;;2.33;;
15931;SDS011;8065;49.520;11.284;2023-07-31T09:44:11;2.93;;;2.10;;
15931;SDS011;8065;49.520;11.284;2023-07-31T09:46:39;4.03;;;2.20;;
15931;SDS011;8065;49.520;11.284;2023-07-31T09:49:08;3.50;;;2.00;;
15931;SDS011;8065;49.520;11.284;2023-07-31T09:51:37;5.87;;;2.53;;
15931;SDS011;8065;49.520;11.284;2023-07-31T09:54:13;4.43;;;2.40;;
15931;SDS011;8065;49.520;11.284;2023-07-31T09:56:43;4.30;;;2.33;;
15931;SDS011;8065;49.520;11.284;2023-07-31T09:59:14;4.27;;;1.80;;
15931;SDS011;8065;49.520;11.284;2023-07-31T10:01:43;4.60;;;1.90;;
15931;SDS011;8065;49.520;11.284;2023-07-31T10:04:14;3.87;;;2.10;;
15931;SDS011;8065;49.520;11.284;2023-07-31T10:06:45;3.50;;;2.27;;
15931;SDS011;8065;49.520;11.284;2023-07-31T10:09:20;5.03;;;2.27;;
15931;SDS011;8065;49.520;11.284;2023-07-31T10:11:51;5.30;;;2.20;;
15931;SDS011;8065;49.520;11.284;2023-07-31T10:14:23;2.57;;;2.10;;
15931;SDS011;8065;49.520;11.284;2023-07-31T10:16:54;7.70;;;2.33;;
15931;SDS011;8065;49.520;11.284;2023-07-31T10:19:23;3.27;;;2.10;;
15931;SDS011;8065;49.520;11.284;2023-07-31T10:21:52;3.17;;;2.00;;
15931;SDS011;8065;49.520;11.284;2023-07-31T10:24:24;3.30;;;2.13;;
15931;SDS011;8065;49.520;11.284;2023-07-31T10:26:53;5.57;;;2.27;;
15931;SDS011;8065;49.520;11.284;2023-07-31T10:29:26;6.93;;;2.43;;
15931;SDS011;8065;49.520;11.284;2023-07-31T10:31:55;3.87;;;2.40;;
15931;SDS011;8065;49.520;11.284;2023-07-31T10:34:25;4.83;;;2.23;;
15931;SDS011;8065;49.520;11.284;2023-07-31T10:39:59;4.33;;;2.13;;
15931;SDS011;8065;49.520;11.284;2023-07-31T10:42:32;3.17;;;2.10;;
15931;SDS011;8065;49.520;11.284;2023-07-31T10:45:03;2.50;;;2.17;;
15931;SDS011;8065;49.520;11.284;2023-07-31T10:47:36;5.57;;;2.37;;
15931;SDS011;8065;49.520;11.284;2023-07-31T10:50:12;5.97;;;2.63;;
15931;SDS011;8065;49.520;11.284;2023-07-31T10:52:43;4.00;;;2.20;;
15931;SDS011;8065;49.520;11.284;2023-07-31T10:55:23;4.70;;;2.00;;
15931;SDS011;8065;49.520;11.284;2023-07-31T10:57:53;5.00;;;2.03;;
15931;SDS011;8065;49.520;11.284;2023-07-31T11:00:24;7.00;;;2.90;;
15931;SDS011;8065;49.520;11.284;2023-07-31T11:02:57;4.13;;;2.20;;
15931;SDS011;8065;49.520;11.284;2023-07-31T11:05:45;4.23;;;2.43;;
15931;SDS011;8065;49.520;11.284;2023-07-31T11:08:21;4.33;;;2.40;;
15931;SDS011;8065;49.520;11.284;2023-07-31T11:11:06;5.70;;;2.50;;
15931;SDS011;8065;49.520;11.284;2023-07-31T11:13:39;3.07;;;2.17;;
15931;SDS011;8065;49.520;11.284;2023-07-31T11:16:09;4.47;;;2.00;;
15931;SDS011;8065;49.520;11.284;2023-07-31T11:18:38;4.77;;;2.23;;
15931;SDS011;8065;49.520;11.284;2023-07-31T11:21:08;2.97;;;2.00;;
15931;SDS011;8065;49.520;11.284;2023-07-31T11:23:39;3.07;;;2.00;;
15931;SDS011;8065;49.520;11.284;2023-07-31T11:26:10;5.67;;;2.33;;
15931;SDS011;8065;49.520;11.284;2023-07-31T11:28:38;5.30;;;1.93;;
15931;SDS011;8065;49.520;11.284;2023-07-31T11:31:08;6.90;;;2.30;;
15931;SDS011;8065;49.520;11.284;2023-07-31T11:33:37;4.83;;;2.17;;
15931;SDS011;8065;49.520;11.284;2023-07-31T11:36:05;3.90;;;2.40;;
15931;SDS011;8065;49.520;11.284;2023-07-31T11:38:33;4.70;;;2.40;;
15931;SDS011;8065;49.520;11.284;2023-07-31T11:41:02;3.70;;;2.13;;
15931;SDS011;8065;49.520;11.284;2023-07-31T11:43:34;3.90;;;2.10;;
15931;SDS011;8065;49.520;11.284;2023-07-31T11:46:03;4.07;;;2.50;;
15931;SDS011;8065;49.520;11.284;2023-07-31T11:48:32;4.07;;;2.50;;
15931;SDS011;8065;49.520;11.284;2023-07-31T11:51:02;2.97;;;1.97;;
15931;SDS011;8065;49.520;11.284;2023-07-31T11:53:31;3.70;;;2.53;;
15931;SDS011;8065;49.520;11.284;2023-07-31T11:56:04;3.87;;;2.30;;
15931;SDS011;8065;49.520;11.284;2023-07-31T11:58:39;4.53;;;2.40;;
15931;SDS011;8065;49.520;11.284;2023-07-31T12:01:08;3.37;;;2.13;;
15931;SDS011;8065;49.520;11.284;2023-07-31T12:03:37;3.40;;;2.30;;
15931;SDS011;8065;49.520;11.284;2023-07-31T12:06:07;4.77;;;2.70;;
15931;SDS011;8065;49.520;11.284;2023-07-31T12:08:36;4.37;;;2.30;;
15931;SDS011;8065;49.520;11.284;2023-07-31T12:11:05;5.87;;;2.70;;
15931;SDS011;8065;49.520;11.284;2023-07-31T12:13:34;5.10;;;2.70;;
15931;SDS011;8065;49.520;11.284;2023-07-31T12:16:06;5.17;;;2.53;;
15931;SDS011;8065;49.520;11.284;2023-07-31T12:18:35;6.90;;;2.60;;
15931;SDS011;8065;49.520;11.284;2023-07-31T12:21:06;4.90;;;2.03;;
15931;SDS011;8065;49.520;11.284;2023-07-31T12:23:37;4.80;;;2.50;;
15931;SDS011;8065;49.520;11.284;2023-07-31T12:26:33;3.87;;;2.60;;
15931;SDS011;8065;49.520;11.284;2023-07-31T12:29:41;4.00;;;2.50;;
15931;SDS011;8065;49.520;11.284;2023-07-31T12:32:24;4.70;;;2.40;;
15931;SDS011;8065;49.520;11.284;2023-07-31T12:34:59;5.17;;;2.50;;
15931;SDS011;8065;49.520;11.284;2023-07-31T12:37:28;3.77;;;2.50;;
15931;SDS011;8065;49.520;11.284;2023-07-31T12:39:57;8.23;;;2.50;;
15931;SDS011;8065;49.520;11.284;2023-07-31T12:42:30;6.47;;;3.10;;
15931;SDS011;8065;49.520;11.284;2023-07-31T12:44:59;4.33;;;2.80;;
15931;SDS011;8065;49.520;11.284;2023-07-31T12:47:30;3.90;;;2.47;;
15931;SDS011;8065;49.520;11.284;2023-07-31T12:49:58;5.00;;;2.70;;
15931;SDS011;8065;49.520;11.284;2023-07-31T12:52:26;3.93;;;2.77;;
15931;SDS011;8065;49.520;11.284;2023-07-31T12:54:54;3.33;;;2.37;;
15931;SDS011;8065;49.520;11.284;2023-07-31T12:57:23;4.73;;;3.13;;
15931;SDS011;8065;49.520;11.284;2023-07-31T12:59:51;5.33;;;2.87;;
15931;SDS011;8065;49.520;11.284;2023-07-31T13:02:19;3.13;;;2.73;;
15931;SDS011;8065;49.520;11.284;2023-07-31T13:04:50;6.00;;;2.80;;
15931;SDS011;8065;49.520;11.284;2023-07-31T13:07:19;4.60;;;2.63;;
15931;SDS011;8065;49.520;11.284;2023-07-31T13:09:48;5.00;;;2.73;;
15931;SDS011;8065;49.520;11.284;2023-07-31T13:12:16;5.97;;;3.03;;
15931;SDS011;8065;49.520;11.284;2023-07-31T13:14:45;4.57;;;2.90;;
15931;SDS011;8065;49.520;11.284;2023-07-31T13:17:13;5.43;;;2.80;;
15931;SDS011;8065;49.520;11.284;2023-07-31T13:19:42;5.20;;;2.73;;
15931;SDS011;8065;49.520;11.284;2023-07-31T13:22:13;6.80;;;2.83;;
15931;SDS011;8065;49.520;11.284;2023-07-31T13:24:41;7.13;;;2.70;;
15931;SDS011;8065;49.520;11.284;2023-07-31T13:27:10;6.73;;;3.03;;
15931;SDS011;8065;49.520;11.284;2023-07-31T13:29:38;4.37;;;3.00;;
15931;SDS011;8065;49.520;11.284;2023-07-31T13:32:06;4.40;;;3.07;;
15931;SDS011;8065;49.520;11.284;2023-07-31T13:34:36;5.53;;;3.23;;
15931;SDS011;8065;49.520;11.284;2023-07-31T13:37:05;3.60;;;2.57;;
15931;SDS011;8065;49.520;11.284;2023-07-31T13:39:36;4.80;;;2.80;;
15931;SDS011;8065;49.520;11.284;2023-07-31T13:42:05;5.57;;;2.80;;
15931;SDS011;8065;49.520;11.284;2023-07-31T13:44:36;5.03;;;2.70;;
15931;SDS011;8065;49.520;11.284;2023-07-31T13:47:05;3.57;;;2.40;;
15931;SDS011;8065;49.520;11.284;2023-07-31T13:49:36;5.17;;;2.87;;
15931;SDS011;8065;49.520;11.284;2023-07-31T13:52:13;5.37;;;2.77;;
15931;SDS011;8065;49.520;11.284;2023-07-31T13:54:46;6.40;;;2.73;;
15931;SDS011;8065;49.520;11.284;2023-07-31T13:57:31;3.40;;;2.70;;
15931;SDS011;8065;49.520;11.284;2023-07-31T14:00:02;4.37;;;2.50;;
15931;SDS011;8065;49.520;11.284;2023-07-31T14:02:33;4.77;;;2.50;;
15931;SDS011;8065;49.520;11.284;2023-07-31T14:05:04;4.33;;;2.43;;
15931;SDS011;8065;49.520;11.284;2023-07-31T14:07:36;4.70;;;2.50;;
15931;SDS011;8065;49.520;11.284;2023-07-31T14:10:09;3.53;;;2.70;;
15931;SDS011;8065;49.520;11.284;2023-07-31T14:12:38;3.10;;;2.60;;
15931;SDS011;8065;49.520;11.284;2023-07-31T14:15:07;3.10;;;2.27;;
15931;SDS011;8065;49.520;11.284;2023-07-31T14:17:36;5.37;;;2.80;;
15931;SDS011;8065;49.520;11.284;2023-07-31T14:20:05;3.37;;;2.60;;
15931;SDS011;8065;49.520;11.284;2023-07-31T14:22:34;3.27;;;2.53;;
15931;SDS011;8065;49.520;11.284;2023-07-31T14:25:03;6.20;;;2.83;;
15931;SDS011;8065;49.520;11.284;2023-07-31T14:27:34;4.50;;;2.77;;
15931;SDS011;8065;49.520;11.284;2023-07-31T14:30:03;6.20;;;2.63;;
15931;SDS011;8065;49.520;11.284;2023-07-31T14:32:32;3.73;;;2.50;;
15931;SDS011;8065;49.520;11.284;2023-07-31T14:35:02;4.80;;;2.77;;
15931;SDS011;8065;49.520;11.284;2023-07-31T14:37:36;4.80;;;2.63;;
15931;SDS011;8065;49.520;11.284;2023-07-31T14:40:05;3.97;;;2.67;;
15931;SDS011;8065;49.520;11.284;2023-07-31T14:42:37;4.87;;;2.97;;
15931;SDS011;8065;49.520;11.284;2023-07-31T14:45:07;3.93;;;2.90;;
15931;SDS011;8065;49.520;11.284;2023-07-31T14:47:36;4.20;;;2.70;;
15931;SDS011;8065;49.520;11.284;2023-07-31T14:50:05;3.17;;;2.53;;
15931;SDS011;8065;49.520;11.284;2023-07-31T14:52:34;5.57;;;2.77;;
15931;SDS011;8065;49.520;11.284;2023-07-31T14:55:02;3.47;;;2.60;;
15931;SDS011;8065;49.520;11.284;2023-07-31T14:57:31;5.20;;;3.30;;
15931;SDS011;8065;49.520;11.284;2023-07-31T15:00:06;4.67;;;2.77;;
15931;SDS011;8065;49.520;11.284;2023-07-31T15:02:35;3.77;;;2.83;;
15931;SDS011;8065;49.520;11.284;2023-07-31T15:05:04;4.20;;;2.47;;
15931;SDS011;8065;49.520;11.284;2023-07-31T15:07:35;3.67;;;2.60;;
15931;SDS011;8065;49.520;11.284;2023-07-31T15:10:04;5.53;;;2.60;;
15931;SDS011;8065;49.520;11.284;2023-07-31T15:12:35;3.63;;;2.67;;